Airfield :
LOGIN :

Register | Disclaimer

   EN    FR    IT 

 










Legend :    VFR   Marginal VFR   IFR   Intensive IFR   Very Intensive IFR
Visi :
Ceiling :
>= 8 km
>= 3000ft
5 to 8 km
1000 to 3000 ft
1500m to 5 km
500 to 1000 ft
800 to 1500m
200 to 500 ft
< 800m
< 200 ft
Symbols :   Thunderstorms  Fog  Heavy snow  Heavy precipitations  Wind > 20 kt
SIGMETs :     Misc.  Thunderstorms  Icing  Turbulence  Mountain Waves  Volcanic Ashes






- Airport Elevation : 218 ft


EGYD - RAF Cranwell

CURRENT METAR :
  • 270820Z 26008KT 5000 -RASN OVC003 01/00 Q0997 BECMG 9999 NSW BKN018 RMK YLO2 BECMG WHT

EXPIRED METARs :
  • 270813Z 26008KT 4000 -RASN OVC003 01/00 Q0997 TEMPO 5000 RMK YLO2 TEMPO YLO2
  • 270755Z 25008KT 3000 -SN BKN004 OVC015 01/00 Q0997 TEMPO 5000 -RASN RMK YLO2 TEMPO YLO2
  • 270720Z 23007KT 6000 -RASN FEW005 OVC015 01/01 Q0997 TEMPO 2500 RASN BKN003 RMK WHT TEMPO YLO2
  • 270650Z 23007KT 7000 -RA OVC016 02/01 Q0997 TEMPO -RASN BKN008 RMK WHT TEMPO GRN
  • 270550Z AUTO 22007KT 9999 // SCT037/// BKN042/// 02/01 Q0997

TAF TAF EGYD
Valid from the 27 at 09:00 until the 27 at 18:00 UTC


270739Z 2709/2718 28012KT 9999 -RA BKN018
TEMPO 2709/2710 6000 -RASN BKN008
PROB30
TEMPO 2709/2710 2500 RASN BKN003
BECMG 2710/2712 30016G26KT NSW FEW020
PROB30
TEMPO 2712/2717 SCT020CB



MET'MAP, your aeronautical weather chart ! - Copyright ORBIFLY December 2007 - Disclaimer

ORBIFLY MET'MAP TEAM :

Programming & Development : Alexandra Zaïnal
Concept & original design : Baudouin d'Aumeries
Assistance for programming : Marc-Olivier Méhu
Technical & hardware support : Manuel Goepfert

Contact : metmap@orbifly.com




SOURCES & CREDITS :

   NOAA